| time (UTC) | temp F | wind direction | speed knots | gust knots | rain 1hr in | rain 24hr in | rain mn in | humidity % | barometer mb |
| 20260507154043 | 82 | 203 | 0.9 | 1.7 | 0.00 | 0.00 | 0.00 | 12 | 1015.8 |
| 20260507153523 | 82 | 0 | 0.9 | 1.7 | 0.00 | 0.00 | 0.00 | 12 | 1015.7 |
| 20260507153023 | 81 | 0 | 1.7 | 4.3 | 0.00 | 0.00 | 0.00 | 12 | 1015.8 |
| 20260507152523 | 82 | 90 | 0.9 | 4.3 | 0.00 | 0.00 | 0.00 | 14 | 1015.8 |
| 20260507152024 | 80 | 23 | 2.6 | 5.2 | 0.00 | 0.00 | 0.00 | 13 | 1015.7 |
| 20260507151523 | 80 | 0 | 2.6 | 4.3 | 0.00 | 0.00 | 0.00 | 13 | 1015.7 |
| 20260507151022 | 80 | 68 | 1.7 | 2.6 | 0.00 | 0.00 | 0.00 | 15 | 1015.8 |
| 20260507150523 | 79 | 338 | 1.7 | 3.5 | 0.00 | 0.00 | 0.00 | 16 | 1015.9 |
| 20260507150023 | 79 | 0 | 1.7 | 3.5 | 0.00 | 0.00 | 0.00 | 18 | 1015.9 |
| 20260507145523 | 78 | 0 | 0.9 | 1.7 | 0.00 | 0.00 | 0.00 | 19 | 1015.9 |
| 20260507145023 | 77 | 248 | 0.9 | 1.7 | 0.00 | 0.00 | 0.00 | 21 | 1015.9 |
| 20260507144522 | 76 | 0.0 | 1.7 | 0.00 | 0.00 | 0.00 | 23 | 1015.9 | |
| 20260507144043 | 74 | 248 | 0.9 | 1.7 | 0.00 | 0.00 | 0.00 | 25 | 1015.8 |
| 20260507143523 | 73 | 248 | 0.9 | 2.6 | 0.00 | 0.00 | 0.00 | 26 | 1015.9 |
| 20260507143043 | 72 | 0.0 | 0.0 | 0.00 | 0.00 | 0.00 | 28 | 1015.8 | |
| 20260507142522 | 72 | 0.0 | 0.0 | 0.00 | 0.00 | 0.00 | 29 | 1015.7 | |
| 20260507142022 | 71 | 225 | 0.9 | 1.7 | 0.00 | 0.00 | 0.00 | 29 | 1015.7 |
| 20260507141523 | 70 | 248 | 1.7 | 3.5 | 0.00 | 0.00 | 0.00 | 30 | 1015.7 |
| 20260507141023 | 70 | 248 | 1.7 | 3.5 | 0.00 | 0.00 | 0.00 | 30 | 1015.7 |
| 20260507140523 | 70 | 225 | 0.9 | 2.6 | 0.00 | 0.00 | 0.00 | 30 | 1015.7 |
| 20260507140023 | 69 | 0.0 | 1.7 | 0.00 | 0.00 | 0.00 | 31 | 1015.6 | |
| 20260507135604 | 68 | 0 | 0.9 | 2.6 | 0.00 | 0.00 | 0.00 | 31 | 1015.6 |
| 20260507135024 | 68 | 0 | 0.9 | 3.5 | 0.00 | 0.00 | 0.00 | 32 | 1015.5 |
| 20260507134522 | 67 | 23 | 0.9 | 1.7 | 0.00 | 0.00 | 0.00 | 32 | 1015.4 |
| 20260507134023 | 67 | 0.0 | 1.7 | 0.00 | 0.00 | 0.00 | 32 | 1015.4 | |
| 20260507133526 | 65 | 248 | 0.9 | 2.6 | 0.00 | 0.00 | 0.00 | 33 | 1015.3 |
| 20260507133022 | 65 | 0 | 1.7 | 1.7 | 0.00 | 0.00 | 0.00 | 33 | 1015.3 |
| 20260507132523 | 65 | 0 | 0.9 | 1.7 | 0.00 | 0.00 | 0.00 | 33 | 1015.3 |
| 20260507132022 | 65 | 0.0 | 0.0 | 0.00 | 0.00 | 0.00 | 33 | 1015.2 | |
| 20260507131522 | 64 | 248 | 0.9 | 2.6 | 0.00 | 0.00 | 0.00 | 34 | 1015.2 |
| 20260507131022 | 63 | 0.0 | 1.7 | 0.00 | 0.00 | 0.00 | 34 | 1015.1 | |
| 20260507130543 | 63 | 0.0 | 0.0 | 0.00 | 0.00 | 0.00 | 34 | 1015.1 | |
| 20260507130024 | 63 | 0.0 | 0.0 | 0.00 | 0.00 | 0.00 | 34 | 1015.1 | |
| 20260507125523 | 63 | 0.0 | 0.0 | 0.00 | 0.00 | 0.00 | 34 | 1015.0 | |
| 20260507125024 | 62 | 0.0 | 0.0 | 0.00 | 0.00 | 0.00 | 34 | 1014.9 | |
| 20260507124523 | 63 | 0.0 | 0.9 | 0.00 | 0.00 | 0.00 | 34 | 1014.9 | |
| 20260507124023 | 63 | 0 | 0.9 | 1.7 | 0.00 | 0.00 | 0.00 | 34 | 1014.9 |
| 20260507123523 | 63 | 0 | 0.9 | 2.6 | 0.00 | 0.00 | 0.00 | 34 | 1014.9 |
| 20260507123104 | 63 | 0.0 | 1.7 | 0.00 | 0.00 | 0.00 | 33 | 1014.9 | |
| 20260507122523 | 63 | 0 | 0.9 | 2.6 | 0.00 | 0.00 | 0.00 | 33 | 1014.9 |
| 20260507122023 | 63 | 270 | 0.9 | 3.5 | 0.00 | 0.00 | 0.00 | 33 | 1014.9 |
| 20260507121523 | 62 | 225 | 0.9 | 2.6 | 0.00 | 0.00 | 0.00 | 34 | 1014.8 |
| 20260507121023 | 62 | 0.0 | 0.9 | 0.00 | 0.00 | 0.00 | 34 | 1014.8 | |
| 20260507120523 | 62 | 0.0 | 1.7 | 0.00 | 0.00 | 0.00 | 35 | 1014.8 | |
| 20260507120024 | 62 | 0.0 | 2.6 | 0.00 | 0.00 | 0.00 | 36 | 1014.9 | |
| 20260507115523 | 61 | 248 | 0.9 | 2.6 | 0.00 | 0.00 | 0.00 | 36 | 1014.9 |
| 20260507115043 | 61 | 0.0 | 0.9 | 0.00 | 0.00 | 0.00 | 37 | 1014.9 | |
| 20260507114524 | 61 | 0.0 | 0.0 | 0.00 | 0.00 | 0.00 | 37 | 1015.0 | |
| 20260507114043 | 61 | 0.0 | 0.0 | 0.00 | 0.00 | 0.00 | 37 | 1015.1 | |
| 20260507113544 | 62 | 0.0 | 0.0 | 0.00 | 0.00 | 0.00 | 37 | 1015.0 | |
| 20260507113023 | 62 | 0.0 | 0.0 | 0.00 | 0.00 | 0.00 | 37 | 1015.2 | |
| 20260507112522 | 62 | 0.0 | 0.0 | 0.00 | 0.00 | 0.00 | 36 | 1015.2 | |
| 20260507112023 | 62 | 0.0 | 0.9 | 0.00 | 0.00 | 0.00 | 36 | 1015.2 | |
| 20260507111604 | 62 | 0 | 0.9 | 3.5 | 0.00 | 0.00 | 0.00 | 36 | 1015.2 |
| 20260507111022 | 62 | 0.0 | 0.0 | 0.00 | 0.00 | 0.00 | 36 | 1015.2 | |
| 20260507110523 | 62 | 0.0 | 0.0 | 0.00 | 0.00 | 0.00 | 36 | 1015.1 | |
| 20260507110023 | 62 | 0.0 | 0.0 | 0.00 | 0.00 | 0.00 | 35 | 1015.2 | |
| 20260507105523 | 63 | 0.0 | 0.0 | 0.00 | 0.00 | 0.00 | 35 | 1015.3 | |
| 20260507105024 | 63 | 0.0 | 0.9 | 0.00 | 0.00 | 0.00 | 34 | 1015.3 | |
| 20260507104523 | 63 | 0.0 | 2.6 | 0.00 | 0.00 | 0.00 | 34 | 1015.4 | |
| 20260507104105 | 64 | 248 | 0.9 | 2.6 | 0.00 | 0.00 | 0.00 | 34 | 1015.3 |
| 20260507103543 | 64 | 248 | 1.7 | 4.3 | 0.00 | 0.00 | 0.00 | 34 | 1015.3 |
| 20260507103022 | 64 | 248 | 2.6 | 4.3 | 0.00 | 0.00 | 0.00 | 34 | 1015.4 |
| 20260507102523 | 64 | 248 | 2.6 | 4.3 | 0.00 | 0.00 | 0.00 | 35 | 1015.4 |
| 20260507102022 | 64 | 248 | 1.7 | 3.5 | 0.00 | 0.00 | 0.00 | 35 | 1015.4 |
| 20260507101523 | 64 | 248 | 1.7 | 3.5 | 0.00 | 0.00 | 0.00 | 35 | 1015.4 |
| 20260507101022 | 63 | 248 | 1.7 | 3.5 | 0.00 | 0.00 | 0.00 | 35 | 1015.5 |
| 20260507100522 | 63 | 248 | 1.7 | 2.6 | 0.00 | 0.00 | 0.00 | 36 | 1015.5 |
| 20260507100023 | 63 | 0.0 | 2.6 | 0.00 | 0.00 | 0.00 | 35 | 1015.6 | |
| 20260507095544 | 63 | 270 | 0.9 | 3.5 | 0.00 | 0.00 | 0.00 | 35 | 1015.5 |
| 20260507095023 | 63 | 248 | 0.9 | 3.5 | 0.00 | 0.00 | 0.00 | 35 | 1015.6 |
| 20260507094523 | 62 | 0.0 | 0.9 | 0.00 | 0.00 | 0.00 | 35 | 1015.4 | |
| 20260507093522 | 63 | 0.0 | 1.7 | 0.00 | 0.00 | 0.00 | 35 | 1015.6 | |
| 20260507093024 | 63 | 248 | 0.9 | 2.6 | 0.00 | 0.00 | 0.00 | 35 | 1015.7 |
| 20260507092523 | 63 | 0.0 | 0.9 | 0.00 | 0.00 | 0.00 | 35 | 1015.6 | |
| 20260507092023 | 63 | 0.0 | 0.9 | 0.00 | 0.00 | 0.00 | 35 | 1015.6 | |
| 20260507091523 | 63 | 248 | 1.7 | 2.6 | 0.00 | 0.00 | 0.00 | 35 | 1015.6 |
| 20260507091022 | 63 | 248 | 1.7 | 2.6 | 0.00 | 0.00 | 0.00 | 35 | 1015.6 |
| 20260507090544 | 63 | 248 | 0.9 | 2.6 | 0.00 | 0.00 | 0.00 | 35 | 1015.7 |
| 20260507090023 | 63 | 180 | 0.9 | 1.7 | 0.00 | 0.00 | 0.00 | 36 | 1015.8 |
| 20260507085523 | 63 | 0.0 | 1.7 | 0.00 | 0.00 | 0.00 | 36 | 1015.8 | |
| 20260507085024 | 63 | 0.0 | 0.9 | 0.00 | 0.00 | 0.00 | 36 | 1015.8 | |
| 20260507084523 | 64 | 0.0 | 0.0 | 0.00 | 0.00 | 0.00 | 35 | 1016.0 | |
| 20260507084022 | 64 | 0.0 | 0.0 | 0.00 | 0.00 | 0.00 | 35 | 1016.0 | |
| 20260507083522 | 64 | 0.0 | 0.0 | 0.00 | 0.00 | 0.00 | 34 | 1015.9 | |
| 20260507083023 | 64 | 0.0 | 0.9 | 0.00 | 0.00 | 0.00 | 34 | 1015.9 | |
| 20260507082523 | 64 | 0.0 | 0.0 | 0.00 | 0.00 | 0.00 | 34 | 1016.0 | |
| 20260507082024 | 64 | 0.0 | 0.0 | 0.00 | 0.00 | 0.00 | 34 | 1016.0 | |
| 20260507081524 | 65 | 0.0 | 0.0 | 0.00 | 0.00 | 0.00 | 33 | 1016.0 | |
| 20260507081023 | 65 | 0.0 | 0.9 | 0.00 | 0.00 | 0.00 | 33 | 1016.0 | |
| 20260507080523 | 65 | 0.0 | 0.0 | 0.00 | 0.00 | 0.00 | 33 | 1016.0 | |
| 20260507080023 | 65 | 0.0 | 0.0 | 0.00 | 0.00 | 0.00 | 33 | 1016.0 | |
| 20260507075523 | 65 | 0.0 | 0.9 | 0.00 | 0.00 | 0.00 | 33 | 1016.0 | |
| 20260507075024 | 66 | 0.0 | 0.9 | 0.00 | 0.00 | 0.00 | 32 | 1016.0 | |
| 20260507074522 | 66 | 0.0 | 0.9 | 0.00 | 0.00 | 0.00 | 32 | 1016.0 | |
| 20260507074023 | 66 | 0.0 | 0.9 | 0.00 | 0.00 | 0.00 | 32 | 1016.0 | |
| 20260507073524 | 66 | 0.0 | 0.9 | 0.00 | 0.00 | 0.00 | 33 | 1016.0 | |
| 20260507073023 | 67 | 0.0 | 0.9 | 0.00 | 0.00 | 0.00 | 33 | 1016.0 | |
| 20260507072523 | 67 | 0.0 | 0.0 | 0.00 | 0.00 | 0.00 | 32 | 1015.9 | |
| 20260507072023 | 67 | 0.0 | 0.0 | 0.00 | 0.00 | 0.00 | 31 | 1016.0 | |
| 20260507071523 | 68 | 0.0 | 0.0 | 0.00 | 0.00 | 0.00 | 31 | 1016.0 | |
| 20260507071044 | 68 | 0.0 | 0.9 | 0.00 | 0.00 | 0.00 | 31 | 1016.1 | |
| 20260507070525 | 69 | 0.0 | 0.9 | 0.00 | 0.00 | 0.00 | 31 | 1016.0 | |
| 20260507070023 | 69 | 180 | 0.9 | 1.7 | 0.00 | 0.00 | 0.00 | 31 | 1015.9 |
| 20260507065523 | 69 | 180 | 0.9 | 1.7 | 0.00 | 0.00 | 0.00 | 32 | 1016.0 |
| 20260507065023 | 68 | 180 | 0.9 | 1.7 | 0.00 | 0.00 | 0.00 | 32 | 1016.0 |
| 20260507064523 | 68 | 0.0 | 0.0 | 0.00 | 0.00 | 0.00 | 33 | 1015.9 | |
| 20260507064023 | 68 | 0.0 | 0.0 | 0.00 | 0.00 | 0.00 | 32 | 1015.9 | |
| 20260507063545 | 68 | 0.0 | 0.9 | 0.00 | 0.00 | 0.00 | 32 | 1015.8 | |
| 20260507063023 | 68 | 0.0 | 0.0 | 0.00 | 0.00 | 0.00 | 31 | 1015.8 | |
| 20260507062523 | 69 | 0.0 | 0.0 | 0.00 | 0.00 | 0.00 | 31 | 1015.9 | |
| 20260507062043 | 69 | 0.0 | 0.0 | 0.00 | 0.00 | 0.00 | 31 | 1016.0 | |
| 20260507061543 | 69 | 0.0 | 1.7 | 0.00 | 0.00 | 0.00 | 31 | 1016.0 | |
| 20260507061023 | 68 | 0.0 | 0.0 | 0.00 | 0.00 | 0.00 | 32 | 1015.8 | |
| 20260507060524 | 68 | 0.0 | 0.9 | 0.00 | 0.00 | 0.00 | 31 | 1015.7 | |
| 20260507060023 | 69 | 0.0 | 0.0 | 0.00 | 0.00 | 0.00 | 32 | 1015.7 | |
| 20260507055523 | 69 | 0.0 | 1.7 | 0.00 | 0.00 | 0.00 | 32 | 1015.7 | |
| 20260507055103 | 68 | 0.0 | 0.0 | 0.00 | 0.00 | 0.00 | 32 | 1015.8 | |
| 20260507054603 | 68 | 0.0 | 0.0 | 0.00 | 0.00 | 0.00 | 31 | 1015.8 | |
| 20260507054023 | 68 | 0.0 | 0.0 | 0.00 | 0.00 | 0.00 | 31 | 1015.8 | |
| 20260507053523 | 69 | 0.0 | 0.0 | 0.00 | 0.00 | 0.00 | 32 | 1015.7 | |
| 20260507053023 | 69 | 0.0 | 0.0 | 0.00 | 0.00 | 0.00 | 31 | 1015.8 | |
| 20260507052523 | 69 | 0.0 | 0.0 | 0.00 | 0.00 | 0.00 | 31 | 1015.7 | |
| 20260507052023 | 69 | 0.0 | 0.0 | 0.00 | 0.00 | 0.00 | 31 | 1015.7 | |
| 20260507051544 | 70 | 0.0 | 0.0 | 0.00 | 0.00 | 0.00 | 30 | 1015.8 | |
| 20260507051023 | 70 | 0.0 | 0.0 | 0.00 | 0.00 | 0.00 | 30 | 1015.8 | |
| 20260507050523 | 70 | 0.0 | 0.0 | 0.00 | 0.00 | 0.00 | 30 | 1015.7 | |
| 20260507050024 | 70 | 0.0 | 0.0 | 0.00 | 0.00 | 0.00 | 30 | 1015.7 | |
| 20260507045524 | 70 | 0.0 | 0.0 | 0.00 | 0.00 | 0.00 | 29 | 1015.6 | |
| 20260507045023 | 70 | 0.0 | 0.0 | 0.00 | 0.00 | 0.00 | 28 | 1015.5 | |
| 20260507044523 | 70 | 0.0 | 0.0 | 0.00 | 0.00 | 0.00 | 29 | 1015.5 | |
| 20260507044046 | 70 | 0.0 | 0.0 | 0.00 | 0.00 | 0.00 | 29 | 1015.5 | |
| 20260507043523 | 70 | 0.0 | 0.0 | 0.00 | 0.00 | 0.00 | 29 | 1015.5 | |
| 20260507043023 | 70 | 0.0 | 0.0 | 0.00 | 0.00 | 0.00 | 28 | 1015.4 | |
| 20260507042523 | 70 | 0.0 | 0.0 | 0.00 | 0.00 | 0.00 | 28 | 1015.3 | |
| 20260507042022 | 71 | 0.0 | 0.0 | 0.00 | 0.00 | 0.00 | 27 | 1015.3 | |
| 20260507041524 | 71 | 0.0 | 0.0 | 0.00 | 0.00 | 0.00 | 27 | 1015.2 | |
| 20260507041023 | 72 | 0.0 | 0.0 | 0.00 | 0.00 | 0.00 | 26 | 1015.3 | |
| 20260507040524 | 73 | 0.0 | 0.0 | 0.00 | 0.00 | 0.00 | 25 | 1015.2 | |
| 20260507040023 | 74 | 0.0 | 0.0 | 0.00 | 0.00 | 0.00 | 25 | 1015.3 | |
| 20260507035523 | 75 | 0.0 | 0.0 | 0.00 | 0.00 | 0.00 | 24 | 1015.1 | |
| 20260507035024 | 76 | 0.0 | 0.0 | 0.00 | 0.00 | 0.00 | 24 | 1015.2 | |
| 20260507034524 | 76 | 0.0 | 0.0 | 0.00 | 0.00 | 0.00 | 23 | 1015.2 | |
| 20260507034024 | 76 | 0.0 | 0.0 | 0.00 | 0.00 | 0.00 | 23 | 1015.1 | |
| 20260507033543 | 77 | 158 | 0.9 | 1.7 | 0.00 | 0.00 | 0.00 | 23 | 1015.0 |
| 20260507033024 | 77 | 180 | 0.9 | 2.6 | 0.00 | 0.00 | 0.00 | 23 | 1015.0 |
| 20260507032544 | 77 | 0.0 | 1.7 | 0.00 | 0.00 | 0.00 | 22 | 1014.8 | |
| 20260507032023 | 77 | 180 | 0.9 | 1.7 | 0.00 | 0.00 | 0.00 | 22 | 1014.7 |
| 20260507031523 | 77 | 180 | 1.7 | 3.5 | 0.00 | 0.00 | 0.00 | 22 | 1014.6 |
| 20260507031023 | 78 | 180 | 1.7 | 2.6 | 0.00 | 0.00 | 0.00 | 22 | 1014.6 |
| 20260507030523 | 78 | 180 | 1.7 | 3.5 | 0.00 | 0.00 | 0.00 | 22 | 1014.5 |
| 20260507030024 | 78 | 180 | 1.7 | 3.5 | 0.00 | 0.00 | 0.00 | 22 | 1014.5 |
| 20260507025523 | 78 | 180 | 1.7 | 2.6 | 0.00 | 0.00 | 0.00 | 22 | 1014.4 |
| 20260507025023 | 78 | 180 | 1.7 | 3.5 | 0.00 | 0.00 | 0.00 | 22 | 1014.3 |
| 20260507024543 | 78 | 180 | 2.6 | 4.3 | 0.00 | 0.00 | 0.00 | 22 | 1014.3 |
| 20260507024023 | 79 | 180 | 2.6 | 4.3 | 0.00 | 0.00 | 0.00 | 21 | 1014.2 |
| 20260507023523 | 79 | 180 | 2.6 | 4.3 | 0.00 | 0.00 | 0.00 | 21 | 1014.0 |
| 20260507023023 | 79 | 180 | 2.6 | 5.2 | 0.00 | 0.00 | 0.00 | 21 | 1014.0 |
| 20260507022523 | 79 | 158 | 3.5 | 4.3 | 0.00 | 0.00 | 0.00 | 21 | 1014.0 |
| 20260507022023 | 79 | 158 | 3.5 | 6.1 | 0.00 | 0.00 | 0.00 | 21 | 1013.9 |
| 20260507021523 | 80 | 158 | 3.5 | 7.0 | 0.00 | 0.00 | 0.00 | 21 | 1014.0 |
| 20260507021043 | 80 | 158 | 2.6 | 5.2 | 0.00 | 0.00 | 0.00 | 21 | 1014.0 |
| 20260507020544 | 80 | 135 | 3.5 | 5.2 | 0.00 | 0.00 | 0.00 | 21 | 1013.6 |
| 20260507020023 | 81 | 180 | 4.3 | 7.8 | 0.00 | 0.00 | 0.00 | 20 | 1013.7 |
| 20260507015523 | 81 | 135 | 3.5 | 6.1 | 0.00 | 0.00 | 0.00 | 20 | 1013.8 |
| 20260507015023 | 81 | 158 | 3.5 | 7.0 | 0.00 | 0.00 | 0.00 | 20 | 1013.6 |
| 20260507014523 | 82 | 135 | 3.5 | 6.1 | 0.00 | 0.00 | 0.00 | 20 | 1013.7 |
| 20260507014023 | 82 | 158 | 4.3 | 7.8 | 0.00 | 0.00 | 0.00 | 20 | 1013.6 |
| 20260507013523 | 82 | 158 | 3.5 | 6.1 | 0.00 | 0.00 | 0.00 | 19 | 1013.4 |
| 20260507013023 | 82 | 158 | 2.6 | 7.8 | 0.00 | 0.00 | 0.00 | 19 | 1013.3 |
| 20260507012523 | 82 | 158 | 2.6 | 4.3 | 0.00 | 0.00 | 0.00 | 20 | 1013.4 |
| 20260507012023 | 82 | 180 | 3.5 | 7.0 | 0.00 | 0.00 | 0.00 | 20 | 1013.3 |
| 20260507011523 | 82 | 158 | 3.5 | 7.0 | 0.00 | 0.00 | 0.00 | 20 | 1013.3 |
| 20260507011043 | 82 | 135 | 2.6 | 5.2 | 0.00 | 0.00 | 0.00 | 19 | 1013.4 |
| 20260507010523 | 82 | 135 | 3.5 | 7.8 | 0.00 | 0.00 | 0.00 | 19 | 1013.3 |
| 20260507010043 | 82 | 158 | 4.3 | 7.8 | 0.00 | 0.00 | 0.00 | 19 | 1013.2 |
| 20260507005523 | 82 | 135 | 5.2 | 9.6 | 0.00 | 0.00 | 0.00 | 20 | 1013.3 |
| 20260507005025 | 82 | 225 | 3.5 | 7.8 | 0.00 | 0.00 | 0.00 | 19 | 1013.3 |
| 20260507004524 | 83 | 158 | 2.6 | 4.3 | 0.00 | 0.00 | 0.00 | 19 | 1013.3 |
| 20260507004023 | 83 | 180 | 3.5 | 6.1 | 0.00 | 0.00 | 0.00 | 19 | 1013.3 |
| 20260507003544 | 83 | 158 | 2.6 | 6.1 | 0.00 | 0.00 | 0.00 | 19 | 1013.3 |
| 20260507003025 | 83 | 203 | 1.7 | 3.5 | 0.00 | 0.00 | 0.00 | 20 | 1013.3 |
| 20260507002523 | 83 | 203 | 3.5 | 6.1 | 0.00 | 0.00 | 0.00 | 19 | 1013.3 |
| 20260507002023 | 83 | 158 | 3.5 | 7.8 | 0.00 | 0.00 | 0.00 | 19 | 1013.3 |
| 20260507001524 | 84 | 135 | 2.6 | 5.2 | 0.00 | 0.00 | 0.00 | 19 | 1013.4 |
| 20260507001023 | 83 | 158 | 1.7 | 6.1 | 0.00 | 0.00 | 0.00 | 19 | 1013.2 |
| 20260507000523 | 82 | 338 | 1.7 | 5.2 | 0.00 | 0.00 | 0.00 | 20 | 1013.3 |
| 20260507000024 | 82 | 180 | 3.5 | 6.1 | 0.00 | 0.00 | 0.00 | 19 | 1013.3 |
| 20260506235523 | 82 | 203 | 4.3 | 7.0 | 0.00 | 0.00 | 0.00 | 19 | 1013.3 |
| 20260506235022 | 82 | 225 | 1.7 | 7.0 | 0.00 | 0.00 | 0.00 | 19 | 1013.3 |
| 20260506234525 | 82 | 203 | 4.3 | 7.0 | 0.00 | 0.00 | 0.00 | 19 | 1013.3 |
| 20260506234043 | 83 | 203 | 5.2 | 9.6 | 0.00 | 0.00 | 0.00 | 19 | 1013.4 |
| 20260506233523 | 83 | 158 | 2.6 | 6.1 | 0.00 | 0.00 | 0.00 | 19 | 1013.4 |
| 20260506233023 | 83 | 135 | 2.6 | 6.1 | 0.00 | 0.00 | 0.00 | 19 | 1013.5 |
| 20260506232523 | 84 | 68 | 0.9 | 3.5 | 0.00 | 0.00 | 0.00 | 18 | 1013.5 |
| 20260506232023 | 83 | 135 | 1.7 | 3.5 | 0.00 | 0.00 | 0.00 | 19 | 1013.7 |
| 20260506231524 | 83 | 135 | 4.3 | 7.8 | 0.00 | 0.00 | 0.00 | 19 | 1013.8 |
| 20260506231023 | 83 | 158 | 4.3 | 7.0 | 0.00 | 0.00 | 0.00 | 19 | 1013.8 |
| 20260506230522 | 82 | 203 | 4.3 | 9.6 | 0.00 | 0.00 | 0.00 | 19 | 1013.8 |
| 20260506230024 | 83 | 203 | 3.5 | 7.0 | 0.00 | 0.00 | 0.00 | 19 | 1014.0 |
| 20260506225523 | 84 | 158 | 1.7 | 4.3 | 0.00 | 0.00 | 0.00 | 18 | 1014.0 |
| 20260506225024 | 83 | 68 | 1.7 | 5.2 | 0.00 | 0.00 | 0.00 | 18 | 1014.0 |
| 20260506224523 | 82 | 135 | 1.7 | 3.5 | 0.00 | 0.00 | 0.00 | 19 | 1014.0 |
| 20260506224023 | 81 | 158 | 3.5 | 6.1 | 0.00 | 0.00 | 0.00 | 19 | 1014.1 |
| 20260506223523 | 81 | 203 | 3.5 | 7.8 | 0.00 | 0.00 | 0.00 | 20 | 1014.2 |
| 20260506223043 | 81 | 180 | 3.5 | 8.7 | 0.00 | 0.00 | 0.00 | 20 | 1014.3 |
| 20260506222523 | 81 | 180 | 2.6 | 8.7 | 0.00 | 0.00 | 0.00 | 20 | 1014.3 |
| 20260506222043 | 81 | 203 | 5.2 | 7.0 | 0.00 | 0.00 | 0.00 | 20 | 1014.4 |
| 20260506221523 | 81 | 158 | 4.3 | 7.8 | 0.00 | 0.00 | 0.00 | 20 | 1014.5 |
| 20260506221023 | 81 | 158 | 5.2 | 9.6 | 0.00 | 0.00 | 0.00 | 20 | 1014.5 |
| 20260506220524 | 81 | 203 | 5.2 | 9.6 | 0.00 | 0.00 | 0.00 | 20 | 1014.5 |
| 20260506220023 | 82 | 158 | 3.5 | 8.7 | 0.00 | 0.00 | 0.00 | 20 | 1014.5 |
| 20260506215523 | 82 | 158 | 3.5 | 5.2 | 0.00 | 0.00 | 0.00 | 19 | 1014.6 |
| 20260506215043 | 81 | 68 | 1.7 | 4.3 | 0.00 | 0.00 | 0.00 | 20 | 1014.7 |
| 20260506214546 | 81 | 180 | 2.6 | 4.3 | 0.00 | 0.00 | 0.00 | 20 | 1014.8 |
| 20260506214023 | 81 | 158 | 2.6 | 6.1 | 0.00 | 0.00 | 0.00 | 20 | 1014.9 |
| 20260506213525 | 81 | 180 | 3.5 | 7.0 | 0.00 | 0.00 | 0.00 | 20 | 1015.0 |
| 20260506213043 | 82 | 158 | 3.5 | 7.8 | 0.00 | 0.00 | 0.00 | 20 | 1015.2 |
| 20260506212523 | 82 | 158 | 2.6 | 5.2 | 0.00 | 0.00 | 0.00 | 19 | 1015.2 |
| 20260506212044 | 83 | 135 | 3.5 | 7.8 | 0.00 | 0.00 | 0.00 | 20 | 1015.3 |
| 20260506211524 | 81 | 135 | 4.3 | 9.6 | 0.00 | 0.00 | 0.00 | 21 | 1015.2 |
| 20260506211023 | 81 | 180 | 2.6 | 6.1 | 0.00 | 0.00 | 0.00 | 20 | 1015.4 |
| 20260506210523 | 82 | 135 | 2.6 | 7.0 | 0.00 | 0.00 | 0.00 | 20 | 1015.6 |
| 20260506210023 | 80 | 338 | 1.7 | 6.1 | 0.00 | 0.00 | 0.00 | 21 | 1015.5 |
| 20260506205523 | 80 | 68 | 2.6 | 7.0 | 0.00 | 0.00 | 0.00 | 21 | 1015.6 |
| 20260506205023 | 80 | 135 | 4.3 | 7.8 | 0.00 | 0.00 | 0.00 | 20 | 1015.8 |
| 20260506204523 | 81 | 180 | 3.5 | 7.0 | 0.00 | 0.00 | 0.00 | 20 | 1015.9 |
| 20260506204024 | 82 | 135 | 2.6 | 7.8 | 0.00 | 0.00 | 0.00 | 20 | 1016.0 |
| 20260506203543 | 82 | 135 | 1.7 | 7.8 | 0.00 | 0.00 | 0.00 | 20 | 1016.1 |
| 20260506203023 | 80 | 135 | 2.6 | 7.0 | 0.00 | 0.00 | 0.00 | 22 | 1016.1 |
| 20260506202543 | 79 | 203 | 4.3 | 7.8 | 0.00 | 0.00 | 0.00 | 21 | 1016.2 |
| 20260506202023 | 80 | 135 | 2.6 | 8.7 | 0.00 | 0.00 | 0.00 | 21 | 1016.2 |
| 20260506201523 | 80 | 135 | 5.2 | 10.4 | 0.00 | 0.00 | 0.00 | 21 | 1016.3 |
| 20260506201043 | 80 | 158 | 3.5 | 6.1 | 0.00 | 0.00 | 0.00 | 22 | 1016.3 |
| 20260506200545 | 80 | 135 | 2.6 | 6.1 | 0.00 | 0.00 | 0.00 | 21 | 1016.5 |
| 20260506200023 | 79 | 135 | 1.7 | 5.2 | 0.00 | 0.00 | 0.00 | 22 | 1016.5 |
| 20260506195522 | 78 | 203 | 3.5 | 7.0 | 0.00 | 0.00 | 0.00 | 22 | 1016.5 |
| 20260506195044 | 78 | 180 | 4.3 | 7.8 | 0.00 | 0.00 | 0.00 | 22 | 1016.6 |
| 20260506194523 | 79 | 158 | 2.6 | 7.8 | 0.00 | 0.00 | 0.00 | 22 | 1016.7 |
| 20260506194024 | 79 | 135 | 4.3 | 7.8 | 0.00 | 0.00 | 0.00 | 22 | 1016.8 |
| 20260506193524 | 79 | 180 | 3.5 | 7.8 | 0.00 | 0.00 | 0.00 | 22 | 1016.6 |
| 20260506193023 | 79 | 158 | 3.5 | 8.7 | 0.00 | 0.00 | 0.00 | 23 | 1016.7 |
| 20260506192523 | 78 | 158 | 2.6 | 6.1 | 0.00 | 0.00 | 0.00 | 23 | 1016.6 |
| 20260506192023 | 78 | 135 | 3.5 | 7.8 | 0.00 | 0.00 | 0.00 | 23 | 1016.7 |
| 20260506191523 | 78 | 158 | 5.2 | 9.6 | 0.00 | 0.00 | 0.00 | 23 | 1016.8 |
| 20260506191023 | 78 | 158 | 3.5 | 9.6 | 0.00 | 0.00 | 0.00 | 23 | 1016.8 |
| 20260506190523 | 78 | 135 | 5.2 | 9.6 | 0.00 | 0.00 | 0.00 | 23 | 1017.1 |
| 20260506190023 | 79 | 135 | 2.6 | 7.0 | 0.00 | 0.00 | 0.00 | 22 | 1017.2 |
| 20260506185522 | 78 | 135 | 2.6 | 7.8 | 0.00 | 0.00 | 0.00 | 23 | 1017.1 |
| 20260506185023 | 78 | 158 | 3.5 | 8.7 | 0.00 | 0.00 | 0.00 | 24 | 1017.2 |
| 20260506184545 | 77 | 45 | 1.7 | 6.1 | 0.00 | 0.00 | 0.00 | 24 | 1017.3 |
| 20260506184045 | 76 | 338 | 1.7 | 4.3 | 0.00 | 0.00 | 0.00 | 25 | 1017.2 |
| 20260506183524 | 76 | 158 | 3.5 | 6.1 | 0.00 | 0.00 | 0.00 | 25 | 1017.4 |
| 20260506183023 | 76 | 180 | 3.5 | 7.8 | 0.00 | 0.00 | 0.00 | 25 | 1017.4 |
| 20260506182525 | 76 | 180 | 5.2 | 8.7 | 0.00 | 0.00 | 0.00 | 25 | 1017.5 |
| 20260506182023 | 76 | 203 | 2.6 | 5.2 | 0.00 | 0.00 | 0.00 | 26 | 1017.6 |
| 20260506181543 | 76 | 180 | 2.6 | 6.1 | 0.00 | 0.00 | 0.00 | 26 | 1017.7 |
| 20260506181023 | 75 | 135 | 2.6 | 8.7 | 0.00 | 0.00 | 0.00 | 27 | 1017.7 |
| 20260506180523 | 75 | 203 | 4.3 | 7.8 | 0.00 | 0.00 | 0.00 | 26 | 1017.7 |
| 20260506180024 | 75 | 180 | 2.6 | 7.0 | 0.00 | 0.00 | 0.00 | 27 | 1017.7 |
| 20260506175523 | 75 | 135 | 3.5 | 6.1 | 0.00 | 0.00 | 0.00 | 28 | 1017.8 |
| 20260506175023 | 75 | 158 | 1.7 | 6.1 | 0.00 | 0.00 | 0.00 | 28 | 1017.8 |
| 20260506174522 | 75 | 135 | 3.5 | 7.0 | 0.00 | 0.00 | 0.00 | 28 | 1017.9 |
| 20260506174023 | 74 | 135 | 3.5 | 6.1 | 0.00 | 0.00 | 0.00 | 28 | 1017.8 |
| 20260506173523 | 73 | 158 | 1.7 | 4.3 | 0.00 | 0.00 | 0.00 | 29 | 1017.9 |
| 20260506173023 | 73 | 203 | 4.3 | 7.8 | 0.00 | 0.00 | 0.00 | 29 | 1017.9 |
| 20260506172525 | 73 | 158 | 2.6 | 6.1 | 0.00 | 0.00 | 0.00 | 29 | 1017.9 |
| 20260506172023 | 73 | 203 | 2.6 | 7.8 | 0.00 | 0.00 | 0.00 | 30 | 1017.9 |
| 20260506171524 | 73 | 158 | 3.5 | 6.1 | 0.00 | 0.00 | 0.00 | 29 | 1017.8 |
| 20260506171023 | 72 | 180 | 3.5 | 7.8 | 0.00 | 0.00 | 0.00 | 30 | 1017.9 |
| 20260506170544 | 72 | 203 | 2.6 | 6.1 | 0.00 | 0.00 | 0.00 | 30 | 1017.9 |
| 20260506170024 | 72 | 180 | 1.7 | 5.2 | 0.00 | 0.00 | 0.00 | 31 | 1017.9 |
| 20260506165523 | 72 | 158 | 2.6 | 5.2 | 0.00 | 0.00 | 0.00 | 31 | 1017.8 |
| 20260506165024 | 72 | 158 | 4.3 | 8.7 | 0.00 | 0.00 | 0.00 | 30 | 1017.8 |
| 20260506164523 | 72 | 158 | 1.7 | 4.3 | 0.00 | 0.00 | 0.00 | 31 | 1017.8 |
| 20260506164023 | 71 | 225 | 1.7 | 4.3 | 0.00 | 0.00 | 0.00 | 32 | 1017.7 |
| 20260506163543 | 71 | 135 | 2.6 | 5.2 | 0.00 | 0.00 | 0.00 | 31 | 1017.8 |
| 20260506163043 | 71 | 135 | 1.7 | 4.3 | 0.00 | 0.00 | 0.00 | 32 | 1017.7 |
| 20260506162524 | 71 | 180 | 3.5 | 6.1 | 0.00 | 0.00 | 0.00 | 32 | 1017.7 |
| 20260506162024 | 71 | 68 | 0.9 | 6.1 | 0.00 | 0.00 | 0.00 | 32 | 1017.6 |
| 20260506161524 | 70 | 203 | 2.6 | 5.2 | 0.00 | 0.00 | 0.00 | 32 | 1017.5 |
| 20260506161023 | 70 | 135 | 2.6 | 4.3 | 0.00 | 0.00 | 0.00 | 33 | 1017.5 |
| 20260506160523 | 69 | 158 | 2.6 | 4.3 | 0.00 | 0.00 | 0.00 | 33 | 1017.5 |
| 20260506160023 | 69 | 180 | 1.7 | 5.2 | 0.00 | 0.00 | 0.00 | 33 | 1017.5 |
| 20260506155543 | 69 | 158 | 2.6 | 4.3 | 0.00 | 0.00 | 0.00 | 34 | 1017.5 |
| 20260506155103 | 69 | 158 | 2.6 | 4.3 | 0.00 | 0.00 | 0.00 | 33 | 1017.5 |
| 20260506154543 | 70 | 180 | 1.7 | 3.5 | 0.00 | 0.00 | 0.00 | 33 | 1017.6 |